Time;durP1;ratioP1;P1;durP2;ratioP2;P2;SDS_P1;SDS_P2;PMS_P1;PMS_P2;Temp;Humidity;BMP_temperature;BMP_pressure;BME280_temperature;BME280_humidity;BME280_pressure;Samples;Min_cycle;Max_cycle;Signal;HPM_P1;HPM_P2
2021/12/11 00:02:09;;;;;;;0.38;0.38;;;3.10;99.90;;;;;;5095951;28;20028;-47
2021/12/11 00:04:39;;;;;;;0.00;0.00;;;3.20;99.90;;;;;;5088711;28;20502;-50
2021/12/11 00:07:09;;;;;;;0.00;0.00;;;3.20;99.90;;;;;;5094907;28;20048;-48
2021/12/11 00:09:39;;;;;;;0.00;0.00;;;3.10;99.90;;;;;;5095499;28;20066;-50
2021/12/11 00:12:14;;;;;;;0.00;0.00;;;3.10;99.90;;;;;;5095607;28;20536;-49
2021/12/11 00:14:43;;;;;;;0.00;0.00;;;3.20;99.90;;;;;;5095711;28;20024;-50
2021/12/11 00:17:09;;;;;;;0.20;0.10;;;3.10;99.90;;;;;;5095191;28;20036;-47
2021/12/11 00:19:38;;;;;;;0.00;0.00;;;3.20;99.90;;;;;;5088927;28;20058;-49
2021/12/11 00:22:13;;;;;;;0.00;0.00;;;3.20;99.90;;;;;;5095241;28;20031;-46
2021/12/11 00:24:41;;;;;;;0.00;0.00;;;3.20;99.90;;;;;;5095372;28;20051;-49
2021/12/11 00:27:15;;;;;;;0.00;0.00;;;3.20;99.90;;;;;;5095438;28;20028;-51
2021/12/11 00:29:41;;;;;;;0.30;0.30;;;3.20;99.90;;;;;;5095554;28;20024;-48
2021/12/11 00:32:12;;;;;;;0.00;0.00;;;3.20;99.90;;;;;;5095147;28;20494;-47
2021/12/11 00:34:43;;;;;;;0.38;0.10;;;3.20;99.90;;;;;;5095279;28;20024;-47
2021/12/11 00:37:12;;;;;;;0.00;0.00;;;3.20;99.90;;;;;;5095487;28;20024;-48
2021/12/11 00:39:52;;;;;;;0.32;0.30;;;3.10;99.90;;;;;;5094656;28;20055;-46
2021/12/11 00:42:21;;;;;;;0.00;0.00;;;3.00;99.90;;;;;;5095294;28;20028;-47
2021/12/11 00:44:50;;;;;;;0.00;0.00;;;3.10;99.90;;;;;;5094672;28;20028;-47
2021/12/11 00:47:27;;;;;;;1.75;0.35;;;3.10;99.90;;;;;;5094919;28;20020;-46
2021/12/11 00:49:57;;;;;;;0.00;0.00;;;3.20;99.90;;;;;;5094928;28;20082;-47
2021/12/11 00:52:40;;;;;;;0.00;0.00;;;3.20;99.90;;;;;;5094982;28;20094;-48
2021/12/11 00:55:26;;;;;;;0.20;0.20;;;3.10;99.90;;;;;;5094848;28;20028;-48
2021/12/11 00:58:23;;;;;;;0.15;0.15;;;3.10;99.90;;;;;;5094668;28;20417;-47
2021/12/11 01:01:20;;;;;;;0.00;0.00;;;3.10;99.90;;;;;;5078168;28;20036;-48
2021/12/11 01:03:58;;;;;;;0.32;0.32;;;3.10;99.90;;;;;;5080498;28;20098;-47
2021/12/11 01:06:33;;;;;;;0.00;0.00;;;3.20;99.90;;;;;;5069955;28;20025;-47
2021/12/11 01:09:05;;;;;;;0.00;0.00;;;3.10;99.90;;;;;;5072165;28;20416;-47
2021/12/11 01:11:36;;;;;;;0.28;0.28;;;3.10;99.90;;;;;;5074405;28;20410;-49
2021/12/11 01:14:52;;;;;;;;;;;3.10;99.90;;;;;;5074686;28;20025;-48
2021/12/11 01:17:21;;;;;;;0.00;0.00;;;3.10;99.90;;;;;;5063640;28;20370;-52
2021/12/11 01:19:54;;;;;;;0.00;0.00;;;3.20;99.90;;;;;;5073715;28;20106;-47
2021/12/11 01:25:18;;;;;;;0.10;0.10;;;3.20;99.90;;;;;;5073940;28;20025;-51
2021/12/11 01:27:48;;;;;;;0.38;0.10;;;3.10;99.90;;;;;;5072792;28;20043;-49
2021/12/11 01:30:24;;;;;;;0.45;0.22;;;3.10;99.90;;;;;;5073559;28;20447;-49
2021/12/11 01:32:50;;;;;;;0.10;0.10;;;3.20;99.90;;;;;;5073897;28;20033;-48
2021/12/11 01:35:18;;;;;;;0.20;0.10;;;3.10;99.90;;;;;;5073745;28;20427;-48
2021/12/11 01:37:46;;;;;;;0.45;0.20;;;3.10;99.90;;;;;;5073803;28;20066;-50
2021/12/11 01:40:15;;;;;;;0.00;0.00;;;3.10;99.90;;;;;;5073215;28;20039;-46
2021/12/11 01:42:42;;;;;;;0.20;0.05;;;3.00;99.90;;;;;;5073739;28;20111;-47
2021/12/11 01:45:11;;;;;;;0.00;0.00;;;3.10;99.90;;;;;;5055086;28;20067;-48
2021/12/11 01:47:40;;;;;;;0.00;0.00;;;3.20;99.90;;;;;;5073943;28;20029;-48
2021/12/11 01:50:21;;;;;;;0.38;0.20;;;3.00;99.90;;;;;;5073600;28;20028;-49
2021/12/11 01:53:02;;;;;;;0.00;0.00;;;3.10;99.90;;;;;;5073635;28;20021;-48
2021/12/11 01:55:38;;;;;;;2.53;0.52;;;3.20;99.90;;;;;;5073384;28;20090;-47
2021/12/11 01:58:06;;;;;;;0.00;0.00;;;3.10;99.90;;;;;;5073558;28;20024;-46
2021/12/11 02:00:48;;;;;;;0.00;0.00;;;3.00;99.90;;;;;;5073264;28;20074;-47
2021/12/11 02:03:19;;;;;;;;;;;3.10;99.90;;;;;;5073768;28;20119;-48
2021/12/11 02:05:45;;;;;;;0.00;0.00;;;3.00;99.90;;;;;;5073222;28;19912;-49
2021/12/11 02:08:15;;;;;;;0.32;0.20;;;3.10;99.90;;;;;;5073408;28;20055;-46
2021/12/11 02:10:55;;;;;;;0.00;0.00;;;3.10;99.90;;;;;;5073692;28;20419;-48
2021/12/11 02:13:35;;;;;;;0.00;0.00;;;3.10;99.90;;;;;;5073131;28;20091;-47
2021/12/11 02:16:03;;;;;;;0.00;0.00;;;3.10;99.90;;;;;;5073784;28;20404;-49
2021/12/11 02:18:36;;;;;;;0.10;0.10;;;3.10;99.90;;;;;;5064005;28;20050;-47
2021/12/11 02:21:05;;;;;;;0.20;0.10;;;3.10;99.90;;;;;;5091983;28;20387;-47
2021/12/11 02:23:31;;;;;;;0.60;0.10;;;3.10;99.90;;;;;;5083530;28;20025;-48
2021/12/11 02:26:03;;;;;;;0.00;0.00;;;3.10;99.90;;;;;;5073121;28;20483;-47
2021/12/11 02:28:31;;;;;;;0.10;0.10;;;3.10;99.90;;;;;;5072916;28;20111;-46
2021/12/11 02:31:15;;;;;;;0.00;0.00;;;3.10;99.90;;;;;;5076977;28;20395;-46
2021/12/11 02:33:47;;;;;;;0.00;0.00;;;3.10;99.90;;;;;;5058920;28;20422;-47
2021/12/11 02:36:36;;;;;;;0.20;0.20;;;3.10;99.90;;;;;;5091191;28;20028;-47
2021/12/11 02:39:09;;;;;;;1.15;0.00;;;3.10;99.90;;;;;;5087951;28;20024;-48
2021/12/11 02:42:15;;;;;;;0.35;0.35;;;3.10;99.90;;;;;;5076955;28;20039;-47
2021/12/11 02:44:53;;;;;;;0.00;0.00;;;3.10;99.90;;;;;;5077338;28;20103;-48
2021/12/11 02:47:25;;;;;;;0.00;0.00;;;3.10;99.90;;;;;;5073447;28;20021;-48
2021/12/11 02:49:59;;;;;;;0.10;0.10;;;3.10;99.90;;;;;;5063038;28;20486;-47
2021/12/11 02:52:49;;;;;;;0.03;0.03;;;3.20;99.90;;;;;;5060476;28;20132;-47
2021/12/11 02:55:39;;;;;;;0.10;0.10;;;3.10;99.90;;;;;;5055681;28;20075;-45
2021/12/11 02:58:15;;;;;;;0.00;0.00;;;3.10;99.90;;;;;;5076233;28;20162;-50
2021/12/11 03:00:50;;;;;;;0.00;0.00;;;3.10;99.90;;;;;;5070091;28;20033;-49
2021/12/11 03:03:26;;;;;;;0.00;0.00;;;3.20;99.90;;;;;;5062005;28;20060;-50
2021/12/11 03:06:01;;;;;;;0.00;0.00;;;3.20;99.90;;;;;;5113819;28;20031;-48
2021/12/11 03:08:26;;;;;;;0.10;0.10;;;3.20;99.90;;;;;;5112901;28;20023;-51
2021/12/11 03:10:56;;;;;;;0.10;0.10;;;3.20;99.90;;;;;;5078817;28;20024;-50
2021/12/11 03:13:23;;;;;;;0.00;0.00;;;3.30;99.90;;;;;;5097000;28;20107;-48
2021/12/11 03:15:50;;;;;;;0.00;0.00;;;3.20;99.90;;;;;;5079064;28;20039;-50
2021/12/11 03:18:17;;;;;;;0.80;0.05;;;3.30;99.90;;;;;;5096356;28;20055;-46
2021/12/11 03:20:44;;;;;;;0.00;0.00;;;3.30;99.90;;;;;;5102186;28;20457;-48
2021/12/11 03:23:11;;;;;;;0.05;0.05;;;3.20;99.90;;;;;;5117157;28;20058;-51
2021/12/11 03:25:38;;;;;;;0.00;0.00;;;3.30;99.90;;;;;;5117250;28;20023;-51
2021/12/11 03:28:05;;;;;;;0.20;0.00;;;3.30;99.90;;;;;;5117043;28;20086;-47
2021/12/11 03:30:38;;;;;;;0.00;0.00;;;3.30;99.90;;;;;;5116803;28;20081;-48
2021/12/11 03:33:11;;;;;;;0.98;0.22;;;3.30;99.90;;;;;;5093475;28;20447;-48
2021/12/11 03:35:37;;;;;;;0.00;0.00;;;3.30;99.90;;;;;;5076308;28;20020;-46
2021/12/11 03:38:04;;;;;;;0.00;0.00;;;3.20;99.90;;;;;;5085013;28;20394;-46
2021/12/11 03:40:30;;;;;;;0.00;0.00;;;3.30;99.90;;;;;;5095521;28;20459;-47
2021/12/11 03:42:58;;;;;;;0.00;0.00;;;3.30;99.90;;;;;;5077723;28;20154;-48
2021/12/11 03:45:30;;;;;;;0.00;0.00;;;3.30;99.90;;;;;;5094224;28;20023;-52
2021/12/11 03:48:05;;;;;;;0.22;0.17;;;3.20;99.90;;;;;;5094507;28;20024;-48
2021/12/11 03:50:31;;;;;;;0.10;0.10;;;3.30;99.90;;;;;;5094184;28;20028;-50
2021/12/11 03:52:58;;;;;;;1.23;0.75;;;3.30;99.90;;;;;;5093872;28;20360;-49
2021/12/11 03:55:34;;;;;;;0.30;0.28;;;3.30;99.90;;;;;;5094205;28;20026;-47
2021/12/11 03:58:01;;;;;;;0.10;0.08;;;3.20;99.90;;;;;;5093964;28;20209;-50
2021/12/11 04:00:37;;;;;;;0.00;0.00;;;3.20;99.90;;;;;;5094908;28;20153;-46
2021/12/11 04:03:06;;;;;;;0.00;0.00;;;3.20;99.90;;;;;;5095739;28;20044;-47
2021/12/11 04:05:34;;;;;;;0.10;0.10;;;3.20;99.90;;;;;;5077845;28;20379;-48
2021/12/11 04:08:01;;;;;;;0.00;0.00;;;3.20;99.90;;;;;;5077692;28;20056;-46
2021/12/11 04:10:27;;;;;;;0.00;0.00;;;3.20;99.90;;;;;;5095707;28;20032;-48
2021/12/11 04:12:58;;;;;;;0.22;0.10;;;3.20;99.90;;;;;;5095702;28;20507;-48
2021/12/11 04:15:24;;;;;;;0.10;0.10;;;3.20;99.90;;;;;;5095454;28;20020;-47
2021/12/11 04:17:51;;;;;;;0.43;0.43;;;3.20;99.90;;;;;;5095411;28;20028;-46
2021/12/11 04:20:19;;;;;;;0.00;0.00;;;3.10;99.90;;;;;;5095165;28;20040;-51
2021/12/11 04:22:46;;;;;;;0.50;0.20;;;3.00;99.90;;;;;;5095541;28;20526;-50
2021/12/11 04:25:14;;;;;;;0.00;0.00;;;3.00;99.90;;;;;;5095492;28;20103;-47
2021/12/11 04:27:40;;;;;;;0.00;0.00;;;3.00;99.90;;;;;;5094820;28;20024;-48
2021/12/11 04:30:09;;;;;;;0.45;0.28;;;3.00;99.90;;;;;;5095014;28;20055;-48
2021/12/11 04:32:35;;;;;;;0.03;0.03;;;3.00;99.90;;;;;;5094905;28;20360;-50
2021/12/11 04:35:04;;;;;;;0.00;0.00;;;3.00;99.90;;;;;;5095454;28;20439;-48
2021/12/11 04:37:31;;;;;;;1.13;0.15;;;2.90;99.90;;;;;;5095202;28;20050;-50
2021/12/11 04:40:10;;;;;;;0.00;0.00;;;2.90;99.90;;;;;;5095177;28;20028;-53
2021/12/11 04:45:26;;;;;;;0.00;0.00;;;2.70;99.90;;;;;;5095154;28;20071;-48
2021/12/11 04:47:58;;;;;;;0.15;0.15;;;2.70;99.90;;;;;;5094707;28;20461;-51
2021/12/11 04:50:46;;;;;;;0.00;0.00;;;2.60;99.90;;;;;;5094962;28;20062;-49
2021/12/11 04:59:46;;;;;;;0.00;0.00;;;2.70;99.90;;;;;;5094656;28;20036;-48
2021/12/11 05:07:01;;;;;;;0.10;0.10;;;2.70;99.90;;;;;;5094799;28;20031;-48
2021/12/11 05:09:36;;;;;;;0.00;0.00;;;2.70;99.90;;;;;;5094744;28;20027;-48
2021/12/11 05:12:17;;;;;;;0.00;0.00;;;2.70;99.90;;;;;;5094409;28;20505;-46
2021/12/11 05:14:44;;;;;;;0.00;0.00;;;2.60;99.90;;;;;;5095002;28;20028;-47
2021/12/11 05:17:11;;;;;;;0.10;0.10;;;2.60;99.90;;;;;;5094169;28;20028;-46
2021/12/11 05:19:37;;;;;;;2.17;0.38;;;2.70;99.90;;;;;;5094388;28;20024;-48
2021/12/11 05:22:06;;;;;;;0.00;0.00;;;2.70;99.90;;;;;;5094381;28;20360;-47
2021/12/11 05:24:33;;;;;;;0.00;0.00;;;2.70;99.90;;;;;;5094077;28;20032;-49
2021/12/11 05:26:59;;;;;;;1.08;0.22;;;2.70;99.90;;;;;;5094030;28;20021;-46
2021/12/11 05:29:25;;;;;;;0.00;0.00;;;2.70;99.90;;;;;;5093979;28;20032;-48
2021/12/11 05:31:51;;;;;;;0.00;0.00;;;2.70;99.90;;;;;;5094231;28;20446;-47
2021/12/11 05:34:17;;;;;;;0.00;0.00;;;2.70;99.90;;;;;;5093677;28;20485;-49
2021/12/11 05:36:43;;;;;;;0.00;0.00;;;2.60;99.90;;;;;;5093845;28;20024;-49
2021/12/11 05:39:15;;;;;;;0.43;0.10;;;2.60;99.90;;;;;;5093982;28;20035;-46
2021/12/11 05:41:41;;;;;;;0.00;0.00;;;2.70;99.90;;;;;;5094014;28;20035;-46
2021/12/11 05:44:09;;;;;;;0.00;0.00;;;2.60;99.90;;;;;;5094044;28;20405;-48
2021/12/11 05:46:36;;;;;;;0.00;0.00;;;2.70;99.90;;;;;;5093800;28;20070;-48
2021/12/11 05:49:06;;;;;;;0.00;0.00;;;2.70;99.90;;;;;;5093623;28;20466;-50
2021/12/11 05:51:38;;;;;;;0.00;0.00;;;2.70;99.90;;;;;;5094217;28;20036;-50
2021/12/11 05:54:08;;;;;;;0.00;0.00;;;2.60;99.90;;;;;;5093717;28;20073;-48
2021/12/11 05:56:37;;;;;;;0.00;0.00;;;2.50;99.90;;;;;;5093702;28;20062;-47
2021/12/11 05:59:06;;;;;;;0.13;0.03;;;2.60;99.90;;;;;;5093334;28;20459;-51
2021/12/11 06:01:54;;;;;;;0.00;0.00;;;2.60;99.90;;;;;;5093787;28;20028;-47
2021/12/11 06:04:24;;;;;;;0.00;0.00;;;2.60;99.90;;;;;;5093213;28;20134;-47
2021/12/11 06:06:51;;;;;;;0.03;0.03;;;2.60;99.90;;;;;;5093596;28;20070;-50
2021/12/11 06:09:20;;;;;;;0.00;0.00;;;2.50;99.90;;;;;;5093552;28;20381;-47
2021/12/11 06:11:49;;;;;;;0.65;0.65;;;2.50;99.90;;;;;;5093400;28;20036;-50
2021/12/11 06:14:17;;;;;;;0.10;0.05;;;2.50;99.90;;;;;;5093199;28;20467;-47
2021/12/11 06:16:44;;;;;;;0.00;0.00;;;2.60;99.90;;;;;;5093145;28;20098;-49
2021/12/11 06:19:10;;;;;;;0.00;0.00;;;2.60;99.90;;;;;;5093203;28;20386;-46
2021/12/11 06:21:36;;;;;;;0.00;0.00;;;2.60;99.90;;;;;;5075380;28;20039;-49
2021/12/11 06:24:03;;;;;;;0.00;0.00;;;2.70;99.90;;;;;;5093819;28;20366;-48
2021/12/11 06:26:29;;;;;;;0.00;0.00;;;2.60;99.90;;;;;;5093501;28;20462;-50
2021/12/11 06:28:55;;;;;;;0.00;0.00;;;2.70;99.90;;;;;;5093015;28;20032;-47
2021/12/11 06:31:21;;;;;;;0.10;0.10;;;2.70;99.90;;;;;;5092896;28;20127;-48
2021/12/11 06:33:49;;;;;;;0.43;0.35;;;2.70;99.90;;;;;;5092890;28;20020;-46
2021/12/11 06:36:16;;;;;;;0.00;0.00;;;2.70;99.90;;;;;;5092819;28;20481;-50
2021/12/11 06:38:44;;;;;;;0.32;0.20;;;2.70;99.90;;;;;;5093364;28;20050;-47
2021/12/11 06:41:12;;;;;;;0.40;0.30;;;2.70;99.90;;;;;;5075264;28;20035;-47
2021/12/11 06:43:39;;;;;;;0.00;0.00;;;2.70;99.90;;;;;;5075024;28;20111;-50
2021/12/11 06:46:06;;;;;;;0.45;0.20;;;2.80;99.90;;;;;;5093226;28;20031;-47
2021/12/11 06:48:32;;;;;;;0.10;0.10;;;2.70;99.90;;;;;;5093157;28;20119;-47
2021/12/11 06:50:58;;;;;;;0.20;0.05;;;2.70;99.90;;;;;;5093145;28;20427;-48
2021/12/11 06:53:45;;;;;;;0.00;0.00;;;2.80;99.90;;;;;;5092701;28;20058;-46
2021/12/11 06:56:14;;;;;;;0.00;0.00;;;2.80;99.90;;;;;;5092860;28;20036;-48
2021/12/11 06:58:40;;;;;;;0.10;0.10;;;2.80;99.90;;;;;;5092795;28;20027;-46
2021/12/11 07:01:07;;;;;;;0.00;0.00;;;2.90;99.90;;;;;;5074690;28;20127;-48
2021/12/11 07:03:33;;;;;;;2.47;1.10;;;3.00;99.90;;;;;;5092639;28;20075;-49
2021/12/11 07:05:59;;;;;;;0.00;0.00;;;2.90;99.90;;;;;;5092970;28;20114;-48
2021/12/11 07:08:26;;;;;;;9.23;1.15;;;3.00;99.90;;;;;;5092636;28;20231;-46
2021/12/11 07:10:53;;;;;;;0.00;0.00;;;3.00;99.90;;;;;;5093039;28;20031;-49
2021/12/11 07:13:19;;;;;;;0.43;0.22;;;3.00;99.90;;;;;;5093078;28;20024;-49
2021/12/11 07:15:45;;;;;;;0.00;0.00;;;2.90;99.90;;;;;;5092759;28;20456;-46
2021/12/11 07:18:11;;;;;;;0.00;0.00;;;2.90;99.90;;;;;;5096550;28;20027;-48
2021/12/11 07:20:37;;;;;;;0.00;0.00;;;3.00;99.90;;;;;;5096549;28;20020;-47
2021/12/11 07:23:04;;;;;;;0.00;0.00;;;3.00;99.90;;;;;;5096297;28;20024;-46
2021/12/11 07:25:37;;;;;;;0.00;0.00;;;3.00;99.90;;;;;;5089224;28;20054;-48
2021/12/11 07:28:04;;;;;;;0.00;0.00;;;3.00;99.90;;;;;;5096414;28;20020;-47
2021/12/11 07:30:32;;;;;;;0.00;0.00;;;2.90;99.90;;;;;;5096244;28;20081;-49
2021/12/11 07:33:01;;;;;;;0.00;0.00;;;2.90;99.90;;;;;;5096025;28;20028;-49
2021/12/11 07:35:27;;;;;;;0.00;0.00;;;2.90;99.90;;;;;;5096319;28;20405;-48
2021/12/11 07:37:54;;;;;;;0.57;0.17;;;3.00;99.90;;;;;;5088423;28;20486;-49
2021/12/11 07:40:23;;;;;;;0.28;0.28;;;3.00;99.90;;;;;;5064426;28;20116;-46
2021/12/11 07:42:50;;;;;;;25.45;1.90;;;3.10;99.90;;;;;;5063507;28;20028;-46
2021/12/11 07:45:17;;;;;;;0.55;0.47;;;2.90;99.90;;;;;;5075882;28;20032;-46
2021/12/11 07:47:43;;;;;;;0.10;0.10;;;2.90;99.90;;;;;;5075015;28;20471;-48
2021/12/11 07:50:10;;;;;;;0.00;0.00;;;2.90;99.90;;;;;;5075390;28;20089;-47
2021/12/11 07:52:35;;;;;;;1.40;0.85;;;3.10;99.90;;;;;;5075584;28;20410;-51
2021/12/11 07:55:02;;;;;;;0.13;0.13;;;3.10;99.90;;;;;;5075405;28;20033;-50
2021/12/11 07:57:28;;;;;;;0.00;0.00;;;3.10;99.90;;;;;;5075488;28;20021;-50
2021/12/11 07:59:54;;;;;;;0.08;0.08;;;2.90;99.90;;;;;;5074959;28;20043;-47
2021/12/11 08:02:20;;;;;;;0.10;0.10;;;2.90;99.90;;;;;;5070531;28;20033;-49
2021/12/11 08:04:45;;;;;;;3.30;1.15;;;3.00;99.90;;;;;;5061032;28;20060;-49
2021/12/11 08:07:11;;;;;;;0.40;0.40;;;2.60;99.90;;;;;;5054934;28;20047;-46
2021/12/11 08:09:37;;;;;;;0.40;0.35;;;2.20;99.90;;;;;;5075146;28;20471;-47
2021/12/11 08:12:05;;;;;;;0.00;0.00;;;1.80;99.90;;;;;;5075452;28;20059;-47
2021/12/11 08:14:31;;;;;;;0.00;0.00;;;1.90;99.90;;;;;;5075120;28;20023;-46
2021/12/11 08:16:59;;;;;;;0.10;0.10;;;2.00;99.90;;;;;;5075102;28;20077;-46
2021/12/11 08:19:27;;;;;;;0.20;0.20;;;2.00;99.90;;;;;;5069682;28;20123;-49
2021/12/11 08:21:56;;;;;;;0.00;0.00;;;2.00;99.90;;;;;;5055234;28;20029;-47
2021/12/11 08:24:23;;;;;;;0.20;0.10;;;2.00;99.90;;;;;;5062631;28;20028;-48
2021/12/11 08:26:51;;;;;;;0.25;0.20;;;2.00;99.90;;;;;;5074237;28;20111;-49
2021/12/11 08:29:18;;;;;;;0.00;0.00;;;2.00;99.90;;;;;;5070231;28;20328;-49
2021/12/11 08:31:48;;;;;;;0.22;0.22;;;2.00;99.90;;;;;;5088844;28;20025;-50
2021/12/11 08:34:13;;;;;;;8.98;2.30;;;2.00;99.90;;;;;;5093512;28;20070;-51
2021/12/11 08:36:40;;;;;;;0.28;0.28;;;2.10;99.90;;;;;;5074271;28;20460;-47
2021/12/11 08:39:10;;;;;;;0.68;0.50;;;2.10;99.90;;;;;;5056373;28;20028;-47
2021/12/11 08:41:37;;;;;;;2.63;0.22;;;2.10;99.90;;;;;;5074152;28;20470;-50
2021/12/11 08:44:09;;;;;;;0.08;0.08;;;2.10;99.90;;;;;;5073975;28;20056;-48
2021/12/11 08:46:36;;;;;;;0.20;0.20;;;2.30;99.90;;;;;;5058340;28;20387;-49
2021/12/11 08:49:07;;;;;;;0.20;0.20;;;2.30;99.90;;;;;;5072740;28;20043;-49
2021/12/11 08:51:44;;;;;;;0.32;0.32;;;2.30;99.90;;;;;;5074367;28;20383;-48
2021/12/11 08:54:12;;;;;;;0.30;0.30;;;2.30;99.90;;;;;;5074105;28;20116;-46
2021/12/11 08:56:40;;;;;;;0.17;0.17;;;2.40;99.90;;;;;;5073642;28;20051;-50
2021/12/11 08:59:10;;;;;;;0.45;0.45;;;2.40;99.90;;;;;;5073796;28;20104;-49
2021/12/11 09:02:01;;;;;;;0.25;0.20;;;2.30;99.90;;;;;;5073724;28;20475;-48
2021/12/11 09:04:50;;;;;;;0.80;0.40;;;2.30;99.90;;;;;;5089468;28;20072;-48
2021/12/11 09:07:30;;;;;;;0.60;0.60;;;2.50;99.90;;;;;;5094014;28;20110;-48
2021/12/11 09:10:01;;;;;;;0.00;0.00;;;2.30;99.90;;;;;;5093516;28;20032;-47
2021/12/11 09:12:36;;;;;;;1.25;0.45;;;2.40;99.90;;;;;;5093882;28;20032;-50
2021/12/11 09:15:07;;;;;;;0.55;0.05;;;2.50;99.90;;;;;;5094030;28;20379;-47
2021/12/11 09:17:44;;;;;;;0.40;0.38;;;2.60;99.90;;;;;;5093587;28;20074;-47
2021/12/11 09:20:34;;;;;;;0.50;0.50;;;2.60;99.90;;;;;;5093747;28;20028;-48
2021/12/11 09:23:23;;;;;;;0.38;0.38;;;2.50;99.90;;;;;;5095608;28;20169;-47
2021/12/11 09:25:53;;;;;;;0.15;0.13;;;2.40;99.90;;;;;;5113893;28;20036;-49
2021/12/11 09:28:48;;;;;;;0.93;0.57;;;2.40;99.90;;;;;;5114008;28;20019;-47
2021/12/11 09:31:29;;;;;;;0.00;0.00;;;2.40;99.90;;;;;;5094788;28;20061;-49
2021/12/11 09:34:01;;;;;;;0.15;0.15;;;2.40;99.90;;;;;;5094858;28;20111;-48
2021/12/11 09:36:32;;;;;;;0.40;0.35;;;2.50;99.90;;;;;;5093567;28;20024;-49
2021/12/11 09:39:21;;;;;;;;;;;2.60;99.90;;;;;;5092495;28;20445;-46
2021/12/11 09:41:47;;;;;;;0.93;0.75;;;2.50;99.90;;;;;;5086056;28;20366;-49
2021/12/11 09:44:30;;;;;;;2.85;0.98;;;2.60;99.90;;;;;;5086804;28;20020;-48
2021/12/11 09:47:03;;;;;;;0.00;0.00;;;2.50;99.90;;;;;;5089056;28;20028;-49
2021/12/11 09:49:37;;;;;;;1.15;0.68;;;2.60;99.90;;;;;;5074692;28;20027;-50
2021/12/11 09:52:16;;;;;;;0.60;0.20;;;2.60;99.90;;;;;;5090954;28;20032;-46
2021/12/11 09:54:44;;;;;;;0.28;0.28;;;2.60;99.90;;;;;;5091775;28;20057;-45
2021/12/11 09:57:14;;;;;;;0.57;0.17;;;2.60;99.90;;;;;;5086117;28;20051;-48
2021/12/11 09:59:41;;;;;;;1.83;1.42;;;2.70;99.90;;;;;;5064799;28;20067;-54
2021/12/11 10:02:18;;;;;;;4.53;0.68;;;2.60;99.90;;;;;;5085921;28;20046;-48
2021/12/11 10:04:59;;;;;;;0.43;0.30;;;2.50;99.90;;;;;;5072969;28;20053;-50
2021/12/11 10:07:34;;;;;;;0.20;0.13;;;2.50;99.90;;;;;;5060606;28;20032;-47
2021/12/11 10:10:20;;;;;;;0.30;0.20;;;2.60;99.90;;;;;;5070517;28;20035;-48
2021/12/11 10:12:52;;;;;;;0.43;0.43;;;2.70;99.90;;;;;;5058634;28;20033;-49
2021/12/11 10:15:21;;;;;;;0.00;0.00;;;2.70;99.90;;;;;;5053732;28;20024;-48
2021/12/11 10:17:51;;;;;;;0.35;0.35;;;2.80;99.90;;;;;;5054506;28;20476;-50
2021/12/11 10:20:35;;;;;;;0.55;0.43;;;2.70;99.90;;;;;;5078226;28;20480;-45
2021/12/11 10:23:05;;;;;;;0.00;0.00;;;2.80;99.90;;;;;;5070122;28;20032;-48
2021/12/11 10:25:33;;;;;;;0.13;0.13;;;2.90;99.90;;;;;;5074076;28;20024;-49
2021/12/11 10:28:01;;;;;;;0.90;0.47;;;2.90;99.90;;;;;;5066363;28;20098;-46
2021/12/11 10:30:28;;;;;;;0.52;0.45;;;2.80;99.90;;;;;;5072372;28;20527;-47
2021/12/11 10:32:55;;;;;;;0.10;0.10;;;2.80;99.90;;;;;;5069761;28;20406;-47
2021/12/11 10:35:28;;;;;;;0.10;0.10;;;3.00;99.90;;;;;;5072625;28;20031;-51
2021/12/11 10:37:55;;;;;;;0.35;0.20;;;3.00;99.90;;;;;;5059642;28;20532;-48
2021/12/11 10:40:32;;;;;;;1.88;1.08;;;3.10;99.90;;;;;;5057182;28;20057;-48
2021/12/11 10:43:04;;;;;;;0.20;0.20;;;3.10;99.90;;;;;;5057693;28;20024;-47
2021/12/11 10:45:30;;;;;;;0.32;0.28;;;3.20;99.90;;;;;;5071824;28;20066;-51
2021/12/11 10:48:00;;;;;;;1.23;1.13;;;3.40;99.90;;;;;;5055463;28;20039;-47
2021/12/11 10:50:56;;;;;;;0.22;0.22;;;3.20;99.90;;;;;;5067094;28;20040;-47
2021/12/11 10:53:25;;;;;;;0.00;0.00;;;3.20;99.90;;;;;;5064464;28;20052;-48
2021/12/11 10:55:54;;;;;;;0.30;0.25;;;3.30;99.90;;;;;;5077946;28;20154;-47
2021/12/11 10:58:23;;;;;;;0.38;0.25;;;3.20;99.90;;;;;;5064107;28;20020;-48
2021/12/11 11:01:02;;;;;;;3.80;0.45;;;3.10;99.90;;;;;;5065594;28;20059;-49
2021/12/11 11:03:30;;;;;;;0.85;0.55;;;3.00;99.90;;;;;;5061499;28;20052;-46
2021/12/11 11:05:56;;;;;;;0.68;0.47;;;2.90;99.90;;;;;;5096292;28;20024;-52
2021/12/11 11:08:22;;;;;;;2.63;0.90;;;2.90;99.90;;;;;;5086941;28;20031;-50
2021/12/11 11:10:56;;;;;;;1.20;0.55;;;2.80;99.90;;;;;;5075577;28;20025;-49
2021/12/11 11:13:23;;;;;;;0.08;0.08;;;2.80;99.90;;;;;;5076629;28;20497;-49
2021/12/11 11:15:50;;;;;;;0.00;0.00;;;2.90;99.90;;;;;;5076398;28;20017;-48
2021/12/11 11:18:18;;;;;;;0.00;0.00;;;2.90;99.90;;;;;;5077907;28;20520;-49
2021/12/11 11:21:00;;;;;;;0.28;0.28;;;2.90;99.90;;;;;;5093159;28;20524;-52
2021/12/11 11:23:26;;;;;;;0.00;0.00;;;2.90;99.90;;;;;;5096364;28;20038;-45
2021/12/11 11:25:54;;;;;;;0.50;0.32;;;2.90;99.90;;;;;;5088579;28;20037;-52
2021/12/11 11:28:26;;;;;;;0.77;0.77;;;2.80;99.90;;;;;;5075546;28;20036;-48
2021/12/11 11:30:58;;;;;;;0.40;0.40;;;2.80;99.90;;;;;;5076708;28;20021;-49
2021/12/11 11:33:25;;;;;;;0.00;0.00;;;2.70;99.90;;;;;;5081365;28;20040;-48
2021/12/11 11:35:52;;;;;;;0.47;0.47;;;2.80;99.90;;;;;;5086319;28;20098;-49
2021/12/11 11:38:22;;;;;;;0.38;0.32;;;2.80;99.90;;;;;;5091407;28;20032;-51
2021/12/11 11:40:53;;;;;;;0.30;0.13;;;2.70;99.90;;;;;;5083184;28;20039;-49
2021/12/11 11:43:19;;;;;;;;;;;2.80;99.90;;;;;;5079923;28;20051;-49
2021/12/11 11:45:52;;;;;;;0.08;0.08;;;2.80;99.90;;;;;;5074033;28;19958;-53
2021/12/11 11:48:22;;;;;;;0.20;0.20;;;2.90;99.90;;;;;;5089171;28;20055;-49
2021/12/11 11:50:50;;;;;;;0.95;0.60;;;2.90;99.90;;;;;;5087218;28;20024;-47
2021/12/11 11:53:18;;;;;;;0.80;0.30;;;2.90;99.90;;;;;;5086066;28;20085;-46
2021/12/11 11:55:49;;;;;;;1.42;0.98;;;2.90;99.90;;;;;;5084269;28;20036;-50
2021/12/11 11:58:16;;;;;;;1.00;0.35;;;2.80;99.90;;;;;;5081709;28;20107;-50
2021/12/11 12:00:47;;;;;;;0.17;0.17;;;2.80;99.90;;;;;;5093467;28;20032;-49
2021/12/11 12:03:15;;;;;;;1.25;0.65;;;3.00;99.90;;;;;;5077385;28;20048;-47
2021/12/11 12:05:44;;;;;;;1.90;0.93;;;3.10;99.90;;;;;;5072881;28;20077;-48
2021/12/11 12:08:12;;;;;;;2.30;1.23;;;3.10;99.90;;;;;;5053822;28;20493;-47
2021/12/11 12:10:40;;;;;;;1.20;0.85;;;3.10;99.90;;;;;;5067858;28;20471;-53
2021/12/11 12:13:07;;;;;;;0.20;0.20;;;3.10;99.90;;;;;;5054232;28;20033;-50
2021/12/11 12:15:40;;;;;;;0.10;0.10;;;3.20;99.90;;;;;;5054828;28;20039;-49
2021/12/11 12:18:06;;;;;;;1.42;0.45;;;3.20;99.90;;;;;;5054304;28;20430;-48
2021/12/11 12:20:34;;;;;;;0.63;0.57;;;3.10;99.90;;;;;;5054453;28;20115;-51
2021/12/11 12:23:00;;;;;;;0.30;0.30;;;3.10;99.90;;;;;;5054566;28;20025;-46
2021/12/11 12:25:27;;;;;;;1.30;1.02;;;3.10;99.90;;;;;;5054262;28;20132;-47
2021/12/11 12:27:53;;;;;;;4.63;2.60;;;3.10;99.90;;;;;;5054129;28;20021;-46
2021/12/11 12:30:28;;;;;;;1.45;0.47;;;2.90;99.90;;;;;;5054288;28;20032;-48
2021/12/11 12:32:55;;;;;;;0.25;0.22;;;2.80;99.90;;;;;;5037026;28;20499;-49
2021/12/11 12:35:23;;;;;;;1.35;1.10;;;2.90;99.90;;;;;;5057981;28;20356;-47
2021/12/11 12:37:50;;;;;;;0.00;0.00;;;2.80;99.90;;;;;;5074333;28;20029;-46
2021/12/11 12:40:31;;;;;;;2.75;0.98;;;2.90;99.90;;;;;;5074082;28;20119;-47
2021/12/11 12:43:09;;;;;;;0.05;0.05;;;2.80;99.90;;;;;;5074396;28;20086;-50
2021/12/11 12:45:45;;;;;;;0.03;0.03;;;3.00;99.90;;;;;;5074202;28;20058;-49
2021/12/11 12:48:18;;;;;;;0.85;0.20;;;3.10;99.90;;;;;;5070355;28;20032;-45
2021/12/11 12:50:53;;;;;;;0.00;0.00;;;3.10;99.90;;;;;;5053373;28;20032;-46
2021/12/11 12:53:21;;;;;;;0.30;0.30;;;3.10;99.90;;;;;;5035950;28;20025;-46
2021/12/11 12:55:55;;;;;;;0.70;0.52;;;3.30;99.90;;;;;;5053683;28;20040;-51
2021/12/11 12:58:29;;;;;;;0.63;0.63;;;3.20;99.90;;;;;;5053526;28;20059;-46
2021/12/11 13:01:04;;;;;;;0.63;0.20;;;3.10;99.90;;;;;;5053562;28;20036;-48
2021/12/11 13:03:33;;;;;;;0.00;0.00;;;3.20;99.90;;;;;;5064651;28;20040;-50
2021/12/11 13:06:03;;;;;;;1.33;1.23;;;3.30;99.90;;;;;;5092819;28;20032;-47
2021/12/11 13:08:33;;;;;;;0.00;0.00;;;3.30;99.90;;;;;;5093686;28;20157;-47
2021/12/11 13:11:07;;;;;;;1.13;0.50;;;3.20;99.90;;;;;;5091084;28;20031;-52
2021/12/11 13:13:34;;;;;;;0.00;0.00;;;3.10;99.90;;;;;;5087242;28;20409;-51
2021/12/11 13:16:11;;;;;;;0.70;0.70;;;3.20;99.90;;;;;;5080541;28;20032;-46
2021/12/11 13:18:43;;;;;;;0.57;0.57;;;3.10;99.90;;;;;;5093301;28;20024;-48
2021/12/11 13:21:13;;;;;;;;;;;3.10;99.90;;;;;;5093827;28;20476;-46
2021/12/11 13:23:41;;;;;;;0.00;0.00;;;3.10;99.90;;;;;;5089684;28;20000;-47
2021/12/11 13:26:09;;;;;;;0.57;0.52;;;3.30;99.90;;;;;;5067037;28;20070;-47
2021/12/11 13:28:41;;;;;;;2.30;1.30;;;3.20;99.90;;;;;;5076205;28;20451;-50
2021/12/11 13:31:12;;;;;;;1.58;0.65;;;3.10;99.90;;;;;;5092771;28;20036;-50
2021/12/11 13:33:41;;;;;;;;;;;3.00;99.90;;;;;;5094132;28;20118;-46
2021/12/11 13:36:10;;;;;;;0.57;0.57;;;2.90;99.90;;;;;;5089847;28;19952;-48